Time,TemperatureF,DewpointF,PressureIn,WindDirection,WindDirectionDegrees,WindSpeedMPH,WindSpeedGustMPH,Humidity,HourlyPrecipIn,Conditions,Clouds,dailyrainin,SoftwareType,DateUTC
2013-03-05 00:00:00,28.9,15.2,29.90,East,90,3.8,5.4,56,0.00,,,0.00,pywws,2013-03-05 05:00:00,
2013-03-05 00:01:00,28.9,15.6,29.90,North,0,3.1,4.5,57,0.00,,,0.00,pywws,2013-03-05 05:01:00,
2013-03-05 00:02:00,28.9,15.6,29.90,North,0,2.2,3.1,57,0.00,,,0.00,pywws,2013-03-05 05:02:00,
2013-03-05 00:04:00,28.9,15.6,29.90,North,0,3.1,5.4,57,0.00,,,0.00,pywws,2013-03-05 05:04:00,
2013-03-05 00:10:00,28.8,15.5,29.90,NE,45,3.1,4.5,57,0.00,,,0.00,pywws,2013-03-05 05:10:00,
2013-03-05 00:15:00,28.9,15.6,29.90,North,0,3.1,4.5,57,0.00,,,0.00,pywws,2013-03-05 05:15:00,
2013-03-05 00:21:00,28.9,15.6,29.90,North,0,3.1,5.4,57,0.00,,,0.00,pywws,2013-03-05 05:21:00,
2013-03-05 00:27:00,28.9,15.6,29.90,NE,45,3.1,4.5,57,0.00,,,0.00,pywws,2013-03-05 05:27:00,
2013-03-05 00:32:00,28.8,15.5,29.90,North,0,3.1,3.8,57,0.00,,,0.00,pywws,2013-03-05 05:32:00,
2013-03-05 00:38:00,28.9,16.0,29.90,North,0,2.2,3.8,58,0.00,,,0.00,pywws,2013-03-05 05:38:00,
2013-03-05 00:43:00,28.8,15.9,29.90,North,0,2.2,3.1,58,0.00,,,0.00,pywws,2013-03-05 05:43:00,
2013-03-05 00:49:00,28.9,16.0,29.91,North,0,2.2,3.8,58,0.00,,,0.00,pywws,2013-03-05 05:49:00,
2013-03-05 00:55:00,28.9,16.0,29.91,North,0,2.2,3.8,58,0.00,,,0.00,pywws,2013-03-05 05:55:00,
2013-03-05 01:00:00,28.8,15.9,29.91,NNE,22,2.2,3.1,58,0.00,,,0.00,pywws,2013-03-05 06:00:00,
2013-03-05 01:06:00,28.6,15.7,29.91,North,0,2.2,3.1,58,0.00,,,0.00,pywws,2013-03-05 06:06:00,
2013-03-05 01:11:00,28.6,16.1,29.91,WNW,292,2.2,5.4,59,0.00,,,0.00,pywws,2013-03-05 06:11:00,
2013-03-05 01:17:00,28.6,16.1,29.91,NE,45,1.6,3.1,59,0.00,,,0.00,pywws,2013-03-05 06:17:00,
2013-03-05 01:23:00,28.6,16.1,29.91,NE,45,2.2,3.1,59,0.00,,,0.00,pywws,2013-03-05 06:23:00,
2013-03-05 01:28:00,28.8,16.3,29.91,North,0,1.6,3.1,59,0.00,,,0.00,pywws,2013-03-05 06:28:00,
2013-03-05 01:34:00,28.8,16.3,29.92,NW,315,1.6,3.8,59,0.00,,,0.00,pywws,2013-03-05 06:34:00,
2013-03-05 01:39:00,28.8,16.3,29.91,NW,315,3.1,3.8,59,0.00,,,0.00,pywws,2013-03-05 06:39:00,
2013-03-05 01:45:00,28.8,16.3,29.91,North,0,2.2,4.5,59,0.00,,,0.00,pywws,2013-03-05 06:45:00,
2013-03-05 01:51:00,28.8,16.3,29.91,North,0,1.6,2.2,59,0.00,,,0.00,pywws,2013-03-05 06:51:00,
2013-03-05 01:56:00,28.6,16.1,29.91,North,0,2.2,4.5,59,0.00,,,0.00,pywws,2013-03-05 06:56:00,
2013-03-05 02:02:00,28.6,16.1,29.91,NW,315,2.2,3.8,59,0.00,,,0.00,pywws,2013-03-05 07:02:00,
2013-03-05 02:07:00,28.6,16.1,29.91,North,0,0.7,1.6,59,0.00,,,0.00,pywws,2013-03-05 07:07:00,
2013-03-05 02:13:00,28.6,16.1,29.91,NW,315,4.5,7.6,59,0.00,,,0.00,pywws,2013-03-05 07:13:00,
2013-03-05 02:19:00,28.6,16.1,29.91,North,0,1.6,2.2,59,0.00,,,0.00,pywws,2013-03-05 07:19:00,
2013-03-05 02:24:00,28.2,14.6,29.91,NE,45,2.2,3.8,56,0.00,,,0.00,pywws,2013-03-05 07:24:00,
2013-03-05 02:30:00,28.2,14.6,29.91,NW,315,1.6,3.1,56,0.00,,,0.00,pywws,2013-03-05 07:30:00,
2013-03-05 02:35:00,28.2,14.6,29.91,NW,315,1.6,3.1,56,0.00,,,0.00,pywws,2013-03-05 07:35:00,
2013-03-05 02:41:00,28.4,16.3,29.91,NW,315,2.2,3.1,60,0.00,,,0.00,pywws,2013-03-05 07:41:00,
2013-03-05 02:47:00,28.4,16.3,29.91,North,0,1.6,2.2,60,0.00,,,0.00,pywws,2013-03-05 07:47:00,
2013-03-05 02:52:00,28.2,15.0,29.91,NW,315,3.8,5.4,57,0.00,,,0.00,pywws,2013-03-05 07:52:00,
2013-03-05 02:58:00,28.4,16.3,29.91,ENE,68,1.6,2.2,60,0.00,,,0.00,pywws,2013-03-05 07:58:00,
2013-03-05 03:03:00,28.4,16.7,29.91,North,0,1.6,2.2,61,0.00,,,0.00,pywws,2013-03-05 08:03:00,
2013-03-05 03:09:00,28.2,15.0,29.91,North,0,1.6,2.2,57,0.00,,,0.00,pywws,2013-03-05 08:09:00,
2013-03-05 03:15:00,28.0,14.8,29.91,North,0,0.7,2.2,57,0.00,,,0.00,pywws,2013-03-05 08:15:00,
2013-03-05 03:20:00,28.0,14.8,29.92,North,0,0.7,2.2,57,0.00,,,0.00,pywws,2013-03-05 08:20:00,
2013-03-05 03:26:00,27.9,15.0,29.91,North,0,1.6,2.2,58,0.00,,,0.00,pywws,2013-03-05 08:26:00,
2013-03-05 03:31:00,27.9,15.4,29.91,North,0,1.6,3.1,59,0.00,,,0.00,pywws,2013-03-05 08:31:00,
2013-03-05 03:37:00,27.9,15.4,29.91,NE,45,2.2,3.1,59,0.00,,,0.00,pywws,2013-03-05 08:37:00,
2013-03-05 03:43:00,28.0,15.2,29.91,North,0,0.7,2.2,58,0.00,,,0.00,pywws,2013-03-05 08:43:00,
2013-03-05 03:48:00,27.9,15.0,29.91,North,0,0.7,1.6,58,0.00,,,0.00,pywws,2013-03-05 08:48:00,
2013-03-05 03:54:00,27.7,14.9,29.92,North,0,0.7,1.6,58,0.00,,,0.00,pywws,2013-03-05 08:54:00,
2013-03-05 03:59:00,27.7,15.2,29.92,NW,315,1.6,2.2,59,0.00,,,0.00,pywws,2013-03-05 08:59:00,
2013-03-05 04:05:00,27.7,15.2,29.93,North,0,0.7,1.6,59,0.00,,,0.00,pywws,2013-03-05 09:05:00,
2013-03-05 04:11:00,27.5,15.5,29.93,North,0,1.6,2.2,60,0.00,,,0.00,pywws,2013-03-05 09:11:00,
2013-03-05 04:16:00,27.7,15.6,29.93,North,0,1.6,3.1,60,0.00,,,0.00,pywws,2013-03-05 09:16:00,
2013-03-05 04:22:00,27.7,15.6,29.93,North,0,1.6,2.2,60,0.00,,,0.00,pywws,2013-03-05 09:22:00,
2013-03-05 04:27:00,27.3,15.3,29.93,North,-999,0.0,0.7,60,0.00,,,0.00,pywws,2013-03-05 09:27:00,
2013-03-05 04:33:00,27.3,15.3,29.93,NE,45,0.7,1.6,60,0.00,,,0.00,pywws,2013-03-05 09:33:00,
2013-03-05 04:39:00,27.1,15.1,29.93,NE,45,1.6,2.2,60,0.00,,,0.00,pywws,2013-03-05 09:39:00,
2013-03-05 04:44:00,27.0,15.0,29.93,NE,45,1.6,2.2,60,0.00,,,0.00,pywws,2013-03-05 09:44:00,
2013-03-05 04:50:00,27.0,15.3,29.93,NE,45,0.7,1.6,61,0.00,,,0.00,pywws,2013-03-05 09:50:00,
2013-03-05 04:55:00,26.8,15.2,29.94,NE,45,0.7,1.6,61,0.00,,,0.00,pywws,2013-03-05 09:55:00,
2013-03-05 05:01:00,26.6,15.0,29.94,NE,45,0.7,1.6,61,0.00,,,0.00,pywws,2013-03-05 10:01:00,
2013-03-05 05:07:00,26.4,15.2,29.94,NW,315,0.7,1.6,62,0.00,,,0.00,pywws,2013-03-05 10:07:00,
2013-03-05 05:12:00,26.6,15.4,29.94,NE,45,0.7,1.6,62,0.00,,,0.00,pywws,2013-03-05 10:12:00,
2013-03-05 05:18:00,26.6,15.4,29.94,NE,45,0.7,1.6,62,0.00,,,0.00,pywws,2013-03-05 10:18:00,
2013-03-05 05:23:00,26.4,15.6,29.94,North,-999,0.0,1.6,63,0.00,,,0.00,pywws,2013-03-05 10:23:00,
2013-03-05 05:29:00,26.2,15.4,29.94,NE,45,0.7,1.6,63,0.00,,,0.00,pywws,2013-03-05 10:29:00,
2013-03-05 05:35:00,26.2,15.4,29.95,NE,45,0.7,1.6,63,0.00,,,0.00,pywws,2013-03-05 10:35:00,
2013-03-05 05:40:00,26.2,15.4,29.95,NE,45,0.7,1.6,63,0.00,,,0.00,pywws,2013-03-05 10:40:00,
2013-03-05 05:46:00,26.1,15.2,29.95,NE,45,0.7,1.6,63,0.00,,,0.00,pywws,2013-03-05 10:46:00,
2013-03-05 05:51:00,25.9,15.0,29.95,NE,45,0.7,1.6,63,0.00,,,0.00,pywws,2013-03-05 10:51:00,
2013-03-05 05:57:00,25.7,14.9,29.95,North,-999,0.0,0.7,63,0.00,,,0.00,pywws,2013-03-05 10:57:00,
2013-03-05 06:03:00,25.7,14.9,29.95,NE,45,0.7,1.6,63,0.00,,,0.00,pywws,2013-03-05 11:03:00,
2013-03-05 06:08:00,25.7,14.9,29.96,North,-999,0.0,0.7,63,0.00,,,0.00,pywws,2013-03-05 11:08:00,
2013-03-05 06:14:00,25.7,14.9,29.96,NE,45,0.7,1.6,63,0.00,,,0.00,pywws,2013-03-05 11:14:00,
2013-03-05 06:19:00,25.7,14.9,29.96,NE,45,0.7,1.6,63,0.00,,,0.00,pywws,2013-03-05 11:19:00,
2013-03-05 06:25:00,25.7,14.9,29.96,NE,45,0.7,1.6,63,0.00,,,0.00,pywws,2013-03-05 11:25:00,
2013-03-05 06:31:00,25.7,14.9,29.96,North,-999,0.0,1.6,63,0.00,,,0.00,pywws,2013-03-05 11:31:00,
2013-03-05 06:36:00,25.7,15.2,29.96,North,-999,0.0,0.7,64,0.00,,,0.00,pywws,2013-03-05 11:36:00,
2013-03-05 06:42:00,25.9,15.4,29.97,North,-999,0.0,1.6,64,0.00,,,0.00,pywws,2013-03-05 11:42:00,
2013-03-05 06:47:00,26.1,15.6,29.97,NE,45,0.7,1.6,64,0.00,,,0.00,pywws,2013-03-05 11:47:00,
2013-03-05 06:53:00,26.1,15.6,29.97,NE,45,0.7,1.6,64,0.00,,,0.00,pywws,2013-03-05 11:53:00,
2013-03-05 06:59:00,26.1,15.6,29.97,NE,45,0.7,1.6,64,0.00,,,0.00,pywws,2013-03-05 11:59:00,
2013-03-05 07:04:00,26.2,15.7,29.97,NNE,22,0.7,1.6,64,0.00,,,0.00,pywws,2013-03-05 12:04:00,
2013-03-05 07:10:00,26.4,16.3,29.97,North,0,0.7,1.6,65,0.00,,,0.00,pywws,2013-03-05 12:10:00,
2013-03-05 07:15:00,26.6,16.1,29.97,North,-999,0.0,0.7,64,0.00,,,0.00,pywws,2013-03-05 12:15:00,
2013-03-05 07:21:00,27.0,16.4,29.98,North,-999,0.0,0.0,64,0.00,,,0.00,pywws,2013-03-05 12:21:00,
2013-03-05 07:27:00,27.1,16.6,29.98,NE,45,0.7,2.2,64,0.00,,,0.00,pywws,2013-03-05 12:27:00,
2013-03-05 07:32:00,27.3,16.4,29.98,North,0,0.7,2.2,63,0.00,,,0.00,pywws,2013-03-05 12:32:00,
2013-03-05 07:38:00,27.9,16.9,29.98,North,-999,0.0,0.7,63,0.00,,,0.00,pywws,2013-03-05 12:38:00,
2013-03-05 07:43:00,28.0,16.7,29.98,North,0,0.7,1.6,62,0.00,,,0.00,pywws,2013-03-05 12:43:00,
2013-03-05 07:49:00,28.4,18.5,29.98,NNE,22,1.6,3.1,66,0.00,,,0.00,pywws,2013-03-05 12:49:00,
2013-03-05 07:55:00,28.8,18.5,29.98,North,0,0.7,2.2,65,0.00,,,0.00,pywws,2013-03-05 12:55:00,
2013-03-05 08:00:00,28.9,18.7,29.98,West,270,2.2,3.8,65,0.00,,,0.00,pywws,2013-03-05 13:00:00,
2013-03-05 08:06:00,29.3,19.0,29.99,North,0,0.7,1.6,65,0.00,,,0.00,pywws,2013-03-05 13:06:00,
2013-03-05 08:11:00,29.7,19.4,29.98,NE,45,1.6,2.2,65,0.00,,,0.00,pywws,2013-03-05 13:11:00,
2013-03-05 08:17:00,29.8,19.2,29.99,North,0,1.6,2.2,64,0.00,,,0.00,pywws,2013-03-05 13:17:00,
2013-03-05 08:23:00,30.2,19.1,29.99,West,270,2.2,3.1,63,0.00,,,0.00,pywws,2013-03-05 13:23:00,
2013-03-05 08:28:00,30.6,19.1,30.00,NW,315,1.6,2.2,62,0.00,,,0.00,pywws,2013-03-05 13:28:00,
2013-03-05 08:34:00,31.1,19.6,30.00,North,0,2.2,3.1,62,0.00,,,0.00,pywws,2013-03-05 13:34:00,
2013-03-05 08:39:00,32.0,19.3,30.00,North,0,1.6,3.8,59,0.00,,,0.00,pywws,2013-03-05 13:39:00,
2013-03-05 08:45:00,32.2,19.1,30.00,North,0,2.2,3.8,58,0.00,,,0.00,pywws,2013-03-05 13:45:00,
2013-03-05 08:51:00,32.2,18.7,30.00,NW,315,1.6,3.1,57,0.00,,,0.00,pywws,2013-03-05 13:51:00,
2013-03-05 08:56:00,32.5,19.0,30.01,NE,45,3.1,3.8,57,0.00,,,0.00,pywws,2013-03-05 13:56:00,
2013-03-05 09:02:00,33.8,19.4,30.01,North,0,2.2,3.8,55,0.00,,,0.00,pywws,2013-03-05 14:02:00,
2013-03-05 09:07:00,34.5,19.6,30.01,North,0,1.6,3.8,54,0.00,,,0.00,pywws,2013-03-05 14:07:00,
2013-03-05 09:13:00,35.4,20.0,30.01,NW,315,2.2,3.8,53,0.00,,,0.00,pywws,2013-03-05 14:13:00,
2013-03-05 09:19:00,35.8,19.4,30.01,North,0,2.2,4.5,51,0.00,,,0.00,pywws,2013-03-05 14:19:00,
2013-03-05 09:24:00,35.8,19.4,30.01,NE,45,3.1,5.4,51,0.00,,,0.00,pywws,2013-03-05 14:24:00,
2013-03-05 09:30:00,36.0,19.6,30.01,East,90,2.2,3.8,51,0.00,,,0.00,pywws,2013-03-05 14:30:00,
2013-03-05 09:35:00,36.5,20.1,30.01,North,0,3.1,3.8,51,0.00,,,0.00,pywws,2013-03-05 14:35:00,
2013-03-05 09:41:00,36.9,20.0,30.01,North,0,1.6,3.8,50,0.00,,,0.00,pywws,2013-03-05 14:41:00,
2013-03-05 09:47:00,37.0,20.1,30.01,NW,315,3.1,3.8,50,0.00,,,0.00,pywws,2013-03-05 14:47:00,
2013-03-05 09:52:00,38.1,23.4,30.02,NW,315,3.1,3.8,55,0.00,,,0.00,pywws,2013-03-05 14:52:00,
2013-03-05 09:58:00,38.5,22.4,30.01,North,0,1.6,3.8,52,0.00,,,0.00,pywws,2013-03-05 14:58:00,
2013-03-05 10:03:00,39.2,23.1,30.02,North,0,2.2,3.1,52,0.00,,,0.00,pywws,2013-03-05 15:03:00,
2013-03-05 10:09:00,39.0,22.4,30.02,NE,45,3.8,6.0,51,0.00,,,0.00,pywws,2013-03-05 15:09:00,
2013-03-05 10:15:00,39.2,22.6,30.01,North,0,1.6,3.1,51,0.00,,,0.00,pywws,2013-03-05 15:15:00,
2013-03-05 10:20:00,39.7,22.6,30.01,North,0,2.2,3.8,50,0.00,,,0.00,pywws,2013-03-05 15:20:00,
2013-03-05 10:26:00,39.6,22.9,30.01,NNE,22,2.2,3.8,51,0.00,,,0.00,pywws,2013-03-05 15:26:00,
2013-03-05 10:31:00,39.7,22.6,30.01,NW,315,3.8,4.5,50,0.00,,,0.00,pywws,2013-03-05 15:31:00,
2013-03-05 10:37:00,40.1,23.4,30.01,NE,45,2.2,3.8,51,0.00,,,0.00,pywws,2013-03-05 15:37:00,
2013-03-05 10:43:00,40.3,23.6,30.01,North,0,2.2,3.1,51,0.00,,,0.00,pywws,2013-03-05 15:43:00,
2013-03-05 10:48:00,41.5,23.3,30.01,NW,315,3.1,4.5,48,0.00,,,0.00,pywws,2013-03-05 15:48:00,
2013-03-05 10:54:00,42.3,24.0,30.01,North,0,0.7,2.2,48,0.00,,,0.00,pywws,2013-03-05 15:54:00,
2013-03-05 10:59:00,43.0,23.1,30.01,North,0,1.6,3.1,45,0.00,,,0.00,pywws,2013-03-05 15:59:00,
2013-03-05 11:05:00,43.5,23.6,30.00,East,90,2.2,3.1,45,0.00,,,0.00,pywws,2013-03-05 16:05:00,
2013-03-05 11:11:00,43.3,22.9,30.01,NW,315,3.1,3.8,44,0.00,,,0.00,pywws,2013-03-05 16:11:00,
2013-03-05 11:16:00,43.7,24.3,30.01,NE,45,2.2,3.1,46,0.00,,,0.00,pywws,2013-03-05 16:16:00,
2013-03-05 11:22:00,44.4,24.4,30.00,NE,45,3.1,4.5,45,0.00,,,0.00,pywws,2013-03-05 16:22:00,
2013-03-05 11:27:00,44.1,24.1,30.01,NE,45,2.2,3.8,45,0.00,,,0.00,pywws,2013-03-05 16:27:00,
2013-03-05 11:33:00,45.1,24.0,30.01,North,0,2.2,4.5,43,0.00,,,0.00,pywws,2013-03-05 16:33:00,
2013-03-05 11:39:00,44.4,23.9,30.00,North,0,2.2,3.1,44,0.00,,,0.00,pywws,2013-03-05 16:39:00,
2013-03-05 11:44:00,44.1,24.1,30.00,North,0,3.1,6.0,45,0.00,,,0.00,pywws,2013-03-05 16:44:00,
2013-03-05 11:50:00,43.5,23.6,30.01,North,0,4.5,6.9,45,0.00,,,0.00,pywws,2013-03-05 16:50:00,
2013-03-05 11:55:00,43.3,24.0,30.00,North,-999,0.0,1.6,46,0.00,,,0.00,pywws,2013-03-05 16:55:00,
2013-03-05 12:01:00,44.6,24.6,30.00,NE,45,1.6,3.1,45,0.00,,,0.00,pywws,2013-03-05 17:01:00,
2013-03-05 12:07:00,44.8,24.8,30.00,North,0,3.1,4.5,45,0.00,,,0.00,pywws,2013-03-05 17:07:00,
2013-03-05 12:12:00,45.1,25.1,30.00,NW,315,2.2,3.8,45,0.00,,,0.00,pywws,2013-03-05 17:12:00,
2013-03-05 12:18:00,45.9,26.3,30.00,NW,315,1.6,2.2,46,0.00,,,0.00,pywws,2013-03-05 17:18:00,
2013-03-05 12:23:00,47.1,27.4,30.00,North,0,3.1,4.5,46,0.00,,,0.00,pywws,2013-03-05 17:23:00,
2013-03-05 12:29:00,46.4,25.1,29.99,North,0,3.1,5.4,43,0.00,,,0.00,pywws,2013-03-05 17:29:00,
2013-03-05 12:35:00,46.9,26.7,29.99,NW,315,1.6,2.2,45,0.00,,,0.00,pywws,2013-03-05 17:35:00,
2013-03-05 12:40:00,48.0,26.0,29.99,SE,135,1.6,3.1,42,0.00,,,0.00,pywws,2013-03-05 17:40:00,
2013-03-05 12:46:00,49.1,28.1,29.99,West,270,3.1,5.4,44,0.00,,,0.00,pywws,2013-03-05 17:46:00,
2013-03-05 12:51:00,49.6,25.7,29.99,North,0,1.6,3.8,39,0.00,,,0.00,pywws,2013-03-05 17:51:00,
2013-03-05 12:57:00,49.8,25.9,29.99,North,0,3.1,4.5,39,0.00,,,0.00,pywws,2013-03-05 17:57:00,
2013-03-05 13:03:00,49.6,26.9,29.98,North,0,2.2,4.5,41,0.00,,,0.00,pywws,2013-03-05 18:03:00,
2013-03-05 13:08:00,50.2,24.9,29.99,North,0,3.1,6.0,37,0.00,,,0.00,pywws,2013-03-05 18:08:00,
2013-03-05 13:14:00,50.5,25.9,29.99,North,0,3.1,4.5,38,0.00,,,0.00,pywws,2013-03-05 18:14:00,
2013-03-05 13:19:00,51.3,25.9,29.98,North,0,1.6,2.2,37,0.00,,,0.00,pywws,2013-03-05 18:19:00,
2013-03-05 13:25:00,52.2,26.0,29.99,North,0,2.2,3.1,36,0.00,,,0.00,pywws,2013-03-05 18:25:00,
2013-03-05 13:31:00,53.2,25.6,29.98,North,0,3.1,3.8,34,0.00,,,0.00,pywws,2013-03-05 18:31:00,
2013-03-05 13:36:00,53.1,24.7,29.99,East,90,1.6,3.1,33,0.00,,,0.00,pywws,2013-03-05 18:36:00,
2013-03-05 13:42:00,53.2,25.6,29.98,North,0,0.7,1.6,34,0.00,,,0.00,pywws,2013-03-05 18:42:00,
2013-03-05 13:47:00,54.0,24.8,29.99,West,270,2.2,3.8,32,0.00,,,0.00,pywws,2013-03-05 18:47:00,
2013-03-05 13:53:00,52.9,24.6,29.99,North,0,1.6,2.2,33,0.00,,,0.00,pywws,2013-03-05 18:53:00,
2013-03-05 13:59:00,52.9,23.8,29.99,West,270,3.8,5.4,32,0.00,,,0.00,pywws,2013-03-05 18:59:00,
2013-03-05 14:04:00,51.8,23.6,29.99,NW,315,2.2,4.5,33,0.00,,,0.00,pywws,2013-03-05 19:04:00,
2013-03-05 14:10:00,53.4,25.0,29.99,West,270,2.2,4.5,33,0.00,,,0.00,pywws,2013-03-05 19:10:00,
2013-03-05 14:15:00,52.9,23.8,29.99,NW,315,3.8,6.0,32,0.00,,,0.00,pywws,2013-03-05 19:15:00,
2013-03-05 14:21:00,52.9,25.3,29.99,NE,45,1.6,3.1,34,0.00,,,0.00,pywws,2013-03-05 19:21:00,
2013-03-05 14:27:00,53.6,24.5,29.99,North,0,1.6,2.2,32,0.00,,,0.00,pywws,2013-03-05 19:27:00,
2013-03-05 14:32:00,54.7,24.7,29.99,North,0,1.6,3.1,31,0.00,,,0.00,pywws,2013-03-05 19:32:00,
2013-03-05 14:38:00,53.8,22.3,30.00,NE,45,1.6,3.1,29,0.00,,,0.00,pywws,2013-03-05 19:38:00,
2013-03-05 14:43:00,54.1,23.4,29.99,NW,315,1.6,3.1,30,0.00,,,0.00,pywws,2013-03-05 19:43:00,
2013-03-05 14:49:00,53.4,22.0,30.00,North,0,3.1,4.5,29,0.00,,,0.00,pywws,2013-03-05 19:49:00,
2013-03-05 14:55:00,53.4,24.3,29.99,North,0,2.2,3.1,32,0.00,,,0.00,pywws,2013-03-05 19:55:00,
2013-03-05 15:00:00,53.2,21.8,30.00,North,0,0.7,1.6,29,0.00,,,0.00,pywws,2013-03-05 20:00:00,
2013-03-05 15:06:00,52.5,21.2,30.00,West,270,2.2,3.8,29,0.00,,,0.00,pywws,2013-03-05 20:06:00,
2013-03-05 15:11:00,50.7,23.4,29.99,North,0,2.2,3.8,34,0.00,,,0.00,pywws,2013-03-05 20:11:00,
2013-03-05 15:17:00,49.6,23.1,29.99,North,0,0.7,2.2,35,0.00,,,0.00,pywws,2013-03-05 20:17:00,
2013-03-05 15:23:00,49.3,24.8,30.00,NW,315,2.2,3.1,38,0.00,,,0.00,pywws,2013-03-05 20:23:00,
2013-03-05 15:28:00,49.3,24.1,29.99,North,0,0.7,2.2,37,0.00,,,0.00,pywws,2013-03-05 20:28:00,
2013-03-05 15:34:00,49.8,24.6,29.99,West,270,2.2,3.8,37,0.00,,,0.00,pywws,2013-03-05 20:34:00,
2013-03-05 15:39:00,50.2,24.3,29.99,North,0,1.6,3.1,36,0.00,,,0.00,pywws,2013-03-05 20:39:00,
2013-03-05 15:45:00,51.3,24.6,29.99,NE,45,0.7,2.2,35,0.00,,,0.00,pywws,2013-03-05 20:45:00,
2013-03-05 15:51:00,52.2,21.7,29.99,NE,45,1.6,3.8,30,0.00,,,0.00,pywws,2013-03-05 20:51:00,
2013-03-05 15:56:00,52.5,23.5,29.99,NE,45,1.6,2.2,32,0.00,,,0.00,pywws,2013-03-05 20:56:00,
2013-03-05 16:02:00,52.5,22.0,29.99,NW,315,2.2,4.5,30,0.00,,,0.00,pywws,2013-03-05 21:02:00,
2013-03-05 16:07:00,51.4,22.6,30.00,North,0,0.7,1.6,32,0.00,,,0.00,pywws,2013-03-05 21:07:00,
2013-03-05 16:13:00,51.6,23.5,30.00,NW,315,0.7,2.2,33,0.00,,,0.00,pywws,2013-03-05 21:13:00,
2013-03-05 16:19:00,52.2,23.2,29.99,NE,45,1.6,2.2,32,0.00,,,0.00,pywws,2013-03-05 21:19:00,
2013-03-05 16:24:00,52.9,22.3,29.99,NW,315,1.6,2.2,30,0.00,,,0.00,pywws,2013-03-05 21:24:00,
2013-03-05 16:30:00,52.7,21.3,29.99,WNW,292,1.6,2.2,29,0.00,,,0.00,pywws,2013-03-05 21:30:00,
2013-03-05 16:35:00,52.2,21.7,29.99,NE,45,1.6,2.2,30,0.00,,,0.00,pywws,2013-03-05 21:35:00,
2013-03-05 16:41:00,51.1,21.5,29.99,East,90,0.7,1.6,31,0.00,,,0.00,pywws,2013-03-05 21:41:00,
2013-03-05 16:47:00,50.7,21.2,29.98,NNE,22,0.7,2.2,31,0.00,,,0.00,pywws,2013-03-05 21:47:00,
2013-03-05 16:52:00,50.4,23.1,29.99,North,0,0.7,2.2,34,0.00,,,0.00,pywws,2013-03-05 21:52:00,
2013-03-05 16:58:00,50.0,22.0,29.99,NE,45,0.7,2.2,33,0.00,,,0.00,pywws,2013-03-05 21:58:00,
2013-03-05 17:03:00,48.6,21.5,29.99,North,-999,0.0,0.7,34,0.00,,,0.00,pywws,2013-03-05 22:03:00,
2013-03-05 17:09:00,47.3,21.7,29.99,North,0,0.7,1.6,36,0.00,,,0.00,pywws,2013-03-05 22:09:00,
2013-03-05 17:15:00,45.9,23.5,29.99,North,-999,0.0,0.7,41,0.00,,,0.00,pywws,2013-03-05 22:15:00,
2013-03-05 17:20:00,44.8,22.5,29.99,East,90,0.7,1.6,41,0.00,,,0.00,pywws,2013-03-05 22:20:00,
2013-03-05 17:26:00,44.1,22.5,30.01,SW,225,0.7,1.6,42,0.00,,,0.00,pywws,2013-03-05 22:26:00,
2013-03-05 17:31:00,43.7,22.7,30.00,North,0,1.6,3.1,43,0.00,,,0.00,pywws,2013-03-05 22:31:00,
2013-03-05 17:37:00,43.0,22.0,30.00,North,-999,0.0,0.7,43,0.00,,,0.00,pywws,2013-03-05 22:37:00,
2013-03-05 17:43:00,42.3,21.9,30.01,NE,45,0.7,1.6,44,0.00,,,0.00,pywws,2013-03-05 22:43:00,
2013-03-05 17:48:00,41.5,21.8,30.01,North,-999,0.0,0.0,45,0.00,,,0.00,pywws,2013-03-05 22:48:00,
2013-03-05 17:54:00,41.2,21.5,30.01,North,-999,0.0,0.0,45,0.00,,,0.00,pywws,2013-03-05 22:54:00,
2013-03-05 17:59:00,40.6,22.0,30.01,North,-999,0.0,0.0,47,0.00,,,0.00,pywws,2013-03-05 22:59:00,
2013-03-05 18:05:00,40.3,21.7,30.01,North,-999,0.0,0.0,47,0.00,,,0.00,pywws,2013-03-05 23:05:00,
2013-03-05 18:11:00,39.6,21.5,30.01,North,-999,0.0,0.0,48,0.00,,,0.00,pywws,2013-03-05 23:11:00,
2013-03-05 18:16:00,39.0,22.0,30.01,North,-999,0.0,0.0,50,0.00,,,0.00,pywws,2013-03-05 23:16:00,
2013-03-05 18:22:00,38.5,21.5,30.02,North,-999,0.0,0.7,50,0.00,,,0.00,pywws,2013-03-05 23:22:00,
2013-03-05 18:27:00,38.3,21.8,30.02,North,-999,0.0,0.0,51,0.00,,,0.00,pywws,2013-03-05 23:27:00,
2013-03-05 18:33:00,37.9,21.4,30.02,NE,45,0.7,1.6,51,0.00,,,0.00,pywws,2013-03-05 23:33:00,
2013-03-05 18:39:00,37.8,22.2,30.02,NE,45,0.7,1.6,53,0.00,,,0.00,pywws,2013-03-05 23:39:00,
2013-03-05 18:44:00,37.9,22.8,30.02,NE,45,0.7,1.6,54,0.00,,,0.00,pywws,2013-03-05 23:44:00,
2013-03-05 18:50:00,37.9,22.8,30.02,NE,45,0.7,1.6,54,0.00,,,0.00,pywws,2013-03-05 23:50:00,
2013-03-05 18:55:00,37.8,22.2,30.02,NE,45,0.7,1.6,53,0.00,,,0.00,pywws,2013-03-05 23:55:00,
2013-03-05 19:01:00,37.2,19.8,30.02,North,-999,0.0,0.7,49,0.00,,,0.00,pywws,2013-03-06 00:01:00,
2013-03-05 19:07:00,36.9,20.0,30.02,NE,45,0.7,1.6,50,0.00,,,0.00,pywws,2013-03-06 00:07:00,
2013-03-05 19:12:00,36.7,20.3,30.02,North,-999,0.0,1.6,51,0.00,,,0.00,pywws,2013-03-06 00:12:00,
2013-03-05 19:18:00,36.5,20.1,30.02,NE,45,0.7,1.6,51,0.00,,,0.00,pywws,2013-03-06 00:18:00,
2013-03-05 19:23:00,36.0,19.6,30.02,NE,45,0.7,1.6,51,0.00,,,0.00,pywws,2013-03-06 00:23:00,
2013-03-05 19:29:00,35.8,19.4,30.03,East,90,0.7,1.6,51,0.00,,,0.00,pywws,2013-03-06 00:29:00,
2013-03-05 19:35:00,36.1,20.2,30.03,NE,45,0.7,1.6,52,0.00,,,0.00,pywws,2013-03-06 00:35:00,
2013-03-05 19:40:00,36.1,20.2,30.03,North,-999,0.0,0.7,52,0.00,,,0.00,pywws,2013-03-06 00:40:00,
2013-03-05 19:46:00,36.3,20.4,30.03,North,-999,0.0,0.0,52,0.00,,,0.00,pywws,2013-03-06 00:46:00,
2013-03-05 19:51:00,36.7,20.7,30.03,North,-999,0.0,0.0,52,0.00,,,0.00,pywws,2013-03-06 00:51:00,
2013-03-05 19:57:00,36.9,20.9,30.04,North,-999,0.0,0.0,52,0.00,,,0.00,pywws,2013-03-06 00:57:00,
2013-03-05 20:03:00,37.2,21.2,30.03,North,-999,0.0,1.6,52,0.00,,,0.00,pywws,2013-03-06 01:03:00,
2013-03-05 20:08:00,37.6,23.3,30.03,North,-999,0.0,0.7,56,0.00,,,0.00,pywws,2013-03-06 01:08:00,
2013-03-05 20:14:00,37.6,23.3,30.02,North,-999,0.0,0.7,56,0.00,,,0.00,pywws,2013-03-06 01:14:00,
2013-03-05 20:20:00,37.4,22.7,30.02,North,-999,0.0,0.0,55,0.00,,,0.00,pywws,2013-03-06 01:20:00,
2013-03-05 20:25:00,36.9,20.4,30.02,North,-999,0.0,0.7,51,0.00,,,0.00,pywws,2013-03-06 01:25:00,
2013-03-05 20:31:00,36.1,20.2,30.02,NE,45,0.7,1.6,52,0.00,,,0.00,pywws,2013-03-06 01:31:00,
2013-03-05 20:36:00,36.0,20.1,30.02,North,-999,0.0,1.6,52,0.00,,,0.00,pywws,2013-03-06 01:36:00,
2013-03-05 20:42:00,35.6,20.2,30.03,North,-999,0.0,0.7,53,0.00,,,0.00,pywws,2013-03-06 01:42:00,
2013-03-05 20:48:00,35.8,20.3,30.02,NE,45,0.7,1.6,53,0.00,,,0.00,pywws,2013-03-06 01:48:00,
2013-03-05 20:53:00,35.4,20.4,30.02,North,-999,0.0,0.0,54,0.00,,,0.00,pywws,2013-03-06 01:53:00,
2013-03-05 20:59:00,35.6,20.6,30.02,NE,45,0.7,1.6,54,0.00,,,0.00,pywws,2013-03-06 01:59:00,
2013-03-05 21:04:00,35.4,20.9,30.02,North,-999,0.0,0.7,55,0.00,,,0.00,pywws,2013-03-06 02:04:00,
2013-03-05 21:10:00,35.2,21.1,30.02,North,-999,0.0,0.0,56,0.00,,,0.00,pywws,2013-03-06 02:10:00,
2013-03-05 21:15:00,35.6,21.0,30.02,North,-999,0.0,0.0,55,0.00,,,0.00,pywws,2013-03-06 02:15:00,
2013-03-05 21:21:00,36.0,21.0,30.02,North,-999,0.0,0.0,54,0.00,,,0.00,pywws,2013-03-06 02:21:00,
2013-03-05 21:27:00,36.1,21.1,30.02,North,-999,0.0,0.0,54,0.00,,,0.00,pywws,2013-03-06 02:27:00,
2013-03-05 21:32:00,36.3,21.3,30.02,North,-999,0.0,0.0,54,0.00,,,0.00,pywws,2013-03-06 02:32:00,
2013-03-05 21:38:00,36.3,21.3,30.03,North,-999,0.0,0.0,54,0.00,,,0.00,pywws,2013-03-06 02:38:00,
2013-03-05 21:44:00,36.3,21.3,30.02,North,-999,0.0,0.0,54,0.00,,,0.00,pywws,2013-03-06 02:44:00,
2013-03-05 21:49:00,36.3,21.7,30.03,North,-999,0.0,0.0,55,0.00,,,0.00,pywws,2013-03-06 02:49:00,
2013-03-05 21:55:00,36.3,21.7,30.02,North,-999,0.0,0.0,55,0.00,,,0.00,pywws,2013-03-06 02:55:00,
2013-03-05 22:00:00,36.3,21.7,30.02,North,-999,0.0,0.0,55,0.00,,,0.00,pywws,2013-03-06 03:00:00,
2013-03-05 22:06:00,36.3,21.3,30.02,North,-999,0.0,0.0,54,0.00,,,0.00,pywws,2013-03-06 03:06:00,
2013-03-05 22:11:00,36.3,21.7,30.02,North,-999,0.0,0.0,55,0.00,,,0.00,pywws,2013-03-06 03:11:00,
2013-03-05 22:17:00,36.1,21.6,30.02,North,-999,0.0,0.0,55,0.00,,,0.00,pywws,2013-03-06 03:17:00,
2013-03-05 22:23:00,36.1,21.6,30.02,North,-999,0.0,0.7,55,0.00,,,0.00,pywws,2013-03-06 03:23:00,
2013-03-05 22:28:00,36.3,21.7,30.02,North,-999,0.0,0.0,55,0.00,,,0.00,pywws,2013-03-06 03:28:00,
2013-03-05 22:34:00,36.3,21.7,30.02,North,-999,0.0,0.0,55,0.00,,,0.00,pywws,2013-03-06 03:34:00,
2013-03-05 22:39:00,36.5,21.9,30.01,North,-999,0.0,0.0,55,0.00,,,0.00,pywws,2013-03-06 03:39:00,
2013-03-05 22:45:00,36.5,21.9,30.02,North,-999,0.0,0.0,55,0.00,,,0.00,pywws,2013-03-06 03:45:00,
2013-03-05 22:51:00,36.5,21.9,30.01,North,-999,0.0,0.0,55,0.00,,,0.00,pywws,2013-03-06 03:51:00,
2013-03-05 22:56:00,36.5,21.9,30.01,North,-999,0.0,0.7,55,0.00,,,0.00,pywws,2013-03-06 03:56:00,
2013-03-05 23:02:00,36.5,21.9,30.01,North,-999,0.0,0.0,55,0.00,,,0.00,pywws,2013-03-06 04:02:00,
2013-03-05 23:07:00,36.5,22.3,30.01,North,-999,0.0,0.0,56,0.00,,,0.00,pywws,2013-03-06 04:07:00,
2013-03-05 23:13:00,36.3,22.1,30.01,North,-999,0.0,0.0,56,0.00,,,0.00,pywws,2013-03-06 04:13:00,
2013-03-05 23:19:00,36.3,22.1,30.01,North,-999,0.0,0.0,56,0.00,,,0.00,pywws,2013-03-06 04:19:00,
2013-03-05 23:24:00,36.3,22.1,30.01,North,-999,0.0,0.0,56,0.00,,,0.00,pywws,2013-03-06 04:24:00,
2013-03-05 23:30:00,36.3,22.1,30.01,North,-999,0.0,0.0,56,0.00,,,0.00,pywws,2013-03-06 04:30:00,
2013-03-05 23:36:00,36.3,22.1,30.01,North,-999,0.0,0.0,56,0.00,,,0.00,pywws,2013-03-06 04:36:00,
2013-03-05 23:41:00,36.3,22.1,30.01,North,-999,0.0,0.0,56,0.00,,,0.00,pywws,2013-03-06 04:41:00,
2013-03-05 23:47:00,36.1,22.0,30.00,North,-999,0.0,0.0,56,0.00,,,0.00,pywws,2013-03-06 04:47:00,
2013-03-05 23:52:00,36.1,22.0,30.01,North,-999,0.0,0.0,56,0.00,,,0.00,pywws,2013-03-06 04:52:00,
2013-03-05 23:58:00,36.1,22.0,30.01,North,-999,0.0,0.0,56,0.00,,,0.00,pywws,2013-03-06 04:58:00,